Time;durP1;ratioP1;P1;durP2;ratioP2;P2;SDS_P1;SDS_P2;PMS_P1;PMS_P2;Temp;Humidity;BMP_temperature;BMP_pressure;BME280_temperature;BME280_humidity;BME280_pressure;Samples;Min_cycle;Max_cycle;Signal;HPM_P1;HPM_P2
2022/08/16 00:02:04;;;;;;;3.45;2.33;;;19.40;22.70;;;;;;5088502;28;35738;-76
2022/08/16 00:04:31;;;;;;;3.00;2.70;;;19.40;22.90;;;;;;5106171;27;34133;-76
2022/08/16 00:06:57;;;;;;;4.90;2.78;;;19.30;22.90;;;;;;5088716;28;34017;-76
2022/08/16 00:09:23;;;;;;;4.43;2.95;;;19.30;23.10;;;;;;5088556;28;34147;-76
2022/08/16 00:11:49;;;;;;;3.75;2.70;;;19.30;22.90;;;;;;5088651;28;36624;-76
2022/08/16 00:14:21;;;;;;;5.03;2.67;;;19.30;23.10;;;;;;5106843;27;34418;-76
2022/08/16 00:16:47;;;;;;;2.92;2.63;;;19.30;23.30;;;;;;5106515;27;34068;-76
2022/08/16 00:19:18;;;;;;;5.90;2.90;;;19.20;23.30;;;;;;5106167;27;34152;-76
2022/08/16 00:21:45;;;;;;;5.22;2.67;;;19.20;22.90;;;;;;5089070;28;34201;-76
2022/08/16 00:24:12;;;;;;;3.10;2.80;;;19.10;23.10;;;;;;5106988;28;34178;-76
2022/08/16 00:26:40;;;;;;;5.03;2.95;;;19.10;23.10;;;;;;5106934;28;34101;-76
2022/08/16 00:29:06;;;;;;;4.80;3.35;;;19.10;23.50;;;;;;5089115;28;34427;-76
2022/08/16 00:31:33;;;;;;;3.30;2.75;;;19.10;23.20;;;;;;5105431;27;35516;-76
2022/08/16 00:34:00;;;;;;;3.35;2.78;;;19.10;23.60;;;;;;5094550;27;34443;-76
2022/08/16 00:36:26;;;;;;;3.22;2.50;;;19.10;23.50;;;;;;5092560;28;34238;-76
2022/08/16 00:38:52;;;;;;;3.08;2.58;;;19.10;23.30;;;;;;5106667;28;34386;-76
2022/08/16 00:41:18;;;;;;;5.90;2.65;;;19.10;23.30;;;;;;5071366;28;36125;-76
2022/08/16 00:43:44;;;;;;;7.72;3.10;;;19.10;23.00;;;;;;5107348;28;34094;-76
2022/08/16 00:46:21;;;;;;;2.70;2.50;;;19.10;23.50;;;;;;5071530;28;34270;-76
2022/08/16 00:48:49;;;;;;;2.83;2.53;;;19.10;24.40;;;;;;5088080;28;34478;-76
2022/08/16 00:51:17;;;;;;;6.28;3.08;;;19.10;23.50;;;;;;5106510;28;34924;-76
2022/08/16 00:53:46;;;;;;;2.58;2.35;;;19.10;23.00;;;;;;5088780;27;34203;-76
2022/08/16 00:56:21;;;;;;;3.20;2.40;;;19.10;23.40;;;;;;5106259;28;34287;-76
2022/08/16 00:58:47;;;;;;;3.67;3.38;;;19.10;23.30;;;;;;5106696;28;34297;-76
2022/08/16 01:01:15;;;;;;;3.92;2.90;;;19.00;23.50;;;;;;5070780;28;35911;-76
2022/08/16 01:03:45;;;;;;;5.40;2.55;;;19.00;23.40;;;;;;5071285;28;34123;-76
2022/08/16 01:06:12;;;;;;;3.15;2.55;;;19.00;23.70;;;;;;5071330;28;34215;-76
2022/08/16 01:08:40;;;;;;;3.97;2.70;;;18.90;23.30;;;;;;5088067;28;34321;-76
2022/08/16 01:11:06;;;;;;;3.65;2.58;;;19.00;23.90;;;;;;5105893;28;34181;-77
2022/08/16 01:13:36;;;;;;;2.80;2.42;;;18.90;23.90;;;;;;5087727;28;34109;-76
2022/08/16 01:16:10;;;;;;;2.60;2.40;;;18.90;24.00;;;;;;5104174;27;34580;-76
2022/08/16 01:18:50;;;;;;;2.55;2.35;;;18.90;24.30;;;;;;5087625;28;34299;-76
2022/08/16 01:21:37;;;;;;;2.78;2.47;;;18.80;25.20;;;;;;5070576;28;35705;-76
2022/08/16 01:24:23;;;;;;;3.40;2.50;;;18.80;25.50;;;;;;5087385;27;34522;-76
2022/08/16 01:26:53;;;;;;;5.15;2.95;;;18.80;26.20;;;;;;5105085;27;34107;-76
2022/08/16 01:29:27;;;;;;;3.22;2.72;;;18.70;24.10;;;;;;5127120;27;34066;-76
2022/08/16 01:31:53;;;;;;;3.42;2.88;;;18.70;24.60;;;;;;5107317;27;36022;-76
2022/08/16 01:34:19;;;;;;;5.63;2.50;;;18.60;24.30;;;;;;5108172;27;34182;-76
2022/08/16 01:36:45;;;;;;;3.28;2.65;;;18.60;23.80;;;;;;5091182;27;34384;-76
2022/08/16 01:39:14;;;;;;;3.47;2.72;;;18.60;24.20;;;;;;5074723;27;34093;-76
2022/08/16 01:41:41;;;;;;;4.53;2.65;;;18.50;24.10;;;;;;5108625;27;36605;-76
2022/08/16 01:44:07;;;;;;;4.65;2.63;;;18.50;24.30;;;;;;5107609;27;34247;-76
2022/08/16 01:46:38;;;;;;;5.32;2.70;;;18.40;24.10;;;;;;5107845;27;34321;-76
2022/08/16 01:49:10;;;;;;;3.70;3.08;;;18.40;24.30;;;;;;5108972;27;34236;-76
2022/08/16 01:51:37;;;;;;;3.30;3.00;;;18.30;24.50;;;;;;5071224;27;35821;-76
2022/08/16 01:54:03;;;;;;;5.15;2.60;;;18.30;24.30;;;;;;5107492;27;34127;-76
2022/08/16 01:56:29;;;;;;;3.22;2.92;;;18.30;24.30;;;;;;5093967;28;34056;-76
2022/08/16 01:58:57;;;;;;;4.72;2.97;;;18.20;24.20;;;;;;5087094;28;34416;-76
2022/08/16 02:01:24;;;;;;;3.22;2.92;;;18.20;24.20;;;;;;5070147;28;35783;-76
2022/08/16 02:03:50;;;;;;;3.78;3.05;;;18.10;24.00;;;;;;5070533;28;34226;-76
2022/08/16 02:06:16;;;;;;;4.10;3.00;;;18.00;23.80;;;;;;5105639;28;34333;-76
2022/08/16 02:08:42;;;;;;;3.92;3.00;;;18.00;24.00;;;;;;5087908;28;34022;-76
2022/08/16 02:11:08;;;;;;;4.13;3.35;;;17.90;24.30;;;;;;5086885;28;34083;-76
2022/08/16 02:13:36;;;;;;;4.25;3.25;;;17.90;24.30;;;;;;5087217;28;34079;-77
2022/08/16 02:16:04;;;;;;;3.83;2.72;;;17.90;24.30;;;;;;5086934;28;34404;-76
2022/08/16 02:18:29;;;;;;;4.32;3.20;;;17.80;24.00;;;;;;5074185;28;34171;-75
2022/08/16 02:20:56;;;;;;;6.05;3.25;;;17.80;24.10;;;;;;5086880;28;36797;-76
2022/08/16 02:23:22;;;;;;;6.82;3.25;;;17.70;24.20;;;;;;5087243;28;34485;-76
2022/08/16 02:25:48;;;;;;;4.65;3.10;;;17.70;24.10;;;;;;5079080;27;34426;-76
2022/08/16 02:28:15;;;;;;;5.97;3.15;;;17.60;24.10;;;;;;5125994;27;34093;-76
2022/08/16 02:30:41;;;;;;;5.50;3.13;;;17.60;24.20;;;;;;5106746;27;36365;-76
2022/08/16 02:33:08;;;;;;;5.72;3.28;;;17.60;24.00;;;;;;5106705;27;34230;-76
2022/08/16 02:35:36;;;;;;;6.88;3.58;;;17.60;24.40;;;;;;5117438;27;34271;-76
2022/08/16 02:38:02;;;;;;;3.78;3.22;;;17.50;24.40;;;;;;5086626;28;34024;-76
2022/08/16 02:40:28;;;;;;;5.22;3.35;;;17.50;24.30;;;;;;5104821;28;34127;-76
2022/08/16 02:42:54;;;;;;;7.93;3.60;;;17.50;24.50;;;;;;5105632;28;33998;-76
2022/08/16 02:45:24;;;;;;;7.18;3.80;;;17.50;24.50;;;;;;5070373;28;34112;-77
2022/08/16 02:47:51;;;;;;;3.70;3.40;;;17.50;24.70;;;;;;5053624;28;34555;-77
2022/08/16 02:50:17;;;;;;;5.18;3.20;;;17.50;24.80;;;;;;5053113;28;36131;-77
2022/08/16 02:52:43;;;;;;;7.22;3.13;;;17.50;24.60;;;;;;5069880;28;34181;-76
2022/08/16 02:55:09;;;;;;;5.22;3.13;;;17.50;24.70;;;;;;5086047;28;34551;-76
2022/08/16 02:57:35;;;;;;;3.83;3.38;;;17.50;24.40;;;;;;5094716;28;34468;-77
2022/08/16 03:00:08;;;;;;;5.35;3.65;;;17.50;24.50;;;;;;5085961;28;35743;-76
2022/08/16 03:02:35;;;;;;;4.15;3.42;;;17.50;24.60;;;;;;5070339;28;34139;-76
2022/08/16 03:05:10;;;;;;;8.35;3.30;;;17.50;24.10;;;;;;5087000;28;34427;-76
2022/08/16 03:07:36;;;;;;;4.43;3.10;;;17.50;24.40;;;;;;5070015;28;34200;-76
2022/08/16 03:10:05;;;;;;;3.55;3.22;;;17.60;24.30;;;;;;5108618;27;35467;-77
2022/08/16 03:12:31;;;;;;;4.72;3.47;;;17.60;25.00;;;;;;5106699;27;34226;-76
2022/08/16 03:14:57;;;;;;;7.63;3.45;;;17.60;24.80;;;;;;5107058;27;34187;-76
2022/08/16 03:17:24;;;;;;;3.92;3.00;;;17.60;24.70;;;;;;5120520;27;34322;-76
2022/08/16 03:19:52;;;;;;;3.35;3.10;;;17.60;24.80;;;;;;5106714;27;35863;-77
2022/08/16 03:22:20;;;;;;;4.68;3.33;;;17.60;24.70;;;;;;5106675;27;34281;-76
2022/08/16 03:24:46;;;;;;;4.00;3.60;;;17.60;24.90;;;;;;5106635;27;34264;-77
2022/08/16 03:27:12;;;;;;;3.95;3.58;;;17.60;24.60;;;;;;5106735;27;34035;-76
2022/08/16 03:29:38;;;;;;;4.10;3.47;;;17.60;24.90;;;;;;5124654;27;34302;-77
2022/08/16 03:32:04;;;;;;;4.47;3.20;;;17.60;24.80;;;;;;5105958;27;34309;-76
2022/08/16 03:34:32;;;;;;;3.30;3.00;;;17.60;24.80;;;;;;5107207;27;34188;-77
2022/08/16 03:36:59;;;;;;;3.60;3.30;;;17.60;25.10;;;;;;5088598;28;34335;-76
2022/08/16 03:39:25;;;;;;;4.65;3.60;;;17.60;25.30;;;;;;5085764;28;36309;-77
2022/08/16 03:41:52;;;;;;;3.92;3.42;;;17.60;25.10;;;;;;5104048;28;34165;-77
2022/08/16 03:44:19;;;;;;;3.60;3.30;;;17.60;25.20;;;;;;5085642;28;34341;-77
2022/08/16 03:46:45;;;;;;;6.50;3.40;;;17.60;25.20;;;;;;5104411;28;34253;-77
2022/08/16 03:49:11;;;;;;;3.90;3.50;;;17.60;25.10;;;;;;5105850;27;34551;-77
2022/08/16 03:51:39;;;;;;;5.25;3.80;;;17.50;24.90;;;;;;5107378;28;34133;-77
2022/08/16 03:54:05;;;;;;;3.90;3.08;;;17.50;25.10;;;;;;5089277;28;34396;-77
2022/08/16 03:56:31;;;;;;;7.35;2.95;;;17.50;25.10;;;;;;5072796;28;34370;-76
2022/08/16 03:58:58;;;;;;;4.88;3.55;;;17.40;25.10;;;;;;5088557;28;35581;-77
2022/08/16 04:01:25;;;;;;;4.28;3.28;;;17.40;25.30;;;;;;5107028;27;34170;-77
2022/08/16 04:03:51;;;;;;;4.13;3.30;;;17.50;25.20;;;;;;5088428;28;34229;-77
2022/08/16 04:06:17;;;;;;;3.75;3.30;;;17.40;25.30;;;;;;5107236;27;34116;-77
2022/08/16 04:08:43;;;;;;;5.22;3.17;;;17.40;25.20;;;;;;5088034;28;35864;-77
2022/08/16 04:11:10;;;;;;;4.25;3.30;;;17.30;25.40;;;;;;5071715;28;34418;-77
2022/08/16 04:13:36;;;;;;;5.18;3.40;;;17.30;24.60;;;;;;5088677;28;34131;-77
2022/08/16 04:16:02;;;;;;;4.30;3.40;;;17.20;25.30;;;;;;5105024;27;34845;-77
2022/08/16 04:18:29;;;;;;;4.15;3.30;;;17.20;25.30;;;;;;5088001;28;35446;-77
2022/08/16 04:20:55;;;;;;;5.57;3.58;;;17.20;25.00;;;;;;5088295;28;34422;-77
2022/08/16 04:23:22;;;;;;;7.03;3.47;;;17.10;24.70;;;;;;5088407;28;34290;-77
2022/08/16 04:25:49;;;;;;;5.80;3.85;;;17.10;25.30;;;;;;5106052;27;34243;-77
2022/08/16 04:28:15;;;;;;;5.88;3.42;;;17.00;25.10;;;;;;5088070;28;36048;-77
2022/08/16 04:30:42;;;;;;;5.97;3.38;;;17.00;25.20;;;;;;5106129;28;34099;-76
2022/08/16 04:33:08;;;;;;;5.63;3.40;;;17.00;25.10;;;;;;5087856;28;34446;-77
2022/08/16 04:35:34;;;;;;;5.38;4.15;;;16.90;25.40;;;;;;5088064;28;34087;-77
2022/08/16 04:38:00;;;;;;;7.28;3.63;;;16.90;24.70;;;;;;5088052;28;36208;-77
2022/08/16 04:40:26;;;;;;;4.90;3.33;;;16.90;24.80;;;;;;5091013;27;34343;-77
2022/08/16 04:42:53;;;;;;;6.93;3.35;;;16.80;25.20;;;;;;5127019;27;34179;-77
2022/08/16 04:45:20;;;;;;;6.93;3.33;;;16.80;25.30;;;;;;5107956;27;34297;-76
2022/08/16 04:47:47;;;;;;;4.72;3.40;;;16.80;25.20;;;;;;5108052;27;35671;-77
2022/08/16 04:50:18;;;;;;;3.47;3.03;;;16.80;24.90;;;;;;5101742;28;34159;-77
2022/08/16 04:52:46;;;;;;;4.75;3.40;;;16.70;25.30;;;;;;5087961;28;34177;-77
2022/08/16 04:55:16;;;;;;;3.90;3.30;;;16.70;25.40;;;;;;5104781;27;34092;-77
2022/08/16 04:57:43;;;;;;;4.45;3.45;;;16.70;25.90;;;;;;5088213;28;34254;-77
2022/08/16 05:00:14;;;;;;;5.53;3.53;;;16.80;25.20;;;;;;5087040;28;34165;-77
2022/08/16 05:02:40;;;;;;;3.83;3.33;;;16.80;25.50;;;;;;5088082;28;33590;-77
2022/08/16 05:05:08;;;;;;;8.75;3.38;;;16.80;25.20;;;;;;5087318;28;34069;-77
2022/08/16 05:07:34;;;;;;;3.40;3.10;;;16.80;25.00;;;;;;5086993;28;35690;-77
2022/08/16 05:10:00;;;;;;;3.95;3.45;;;16.80;25.00;;;;;;5087392;28;34047;-77
2022/08/16 05:12:26;;;;;;;5.18;3.60;;;16.90;25.30;;;;;;5090184;28;34214;-78
2022/08/16 05:14:51;;;;;;;7.75;3.28;;;16.90;25.10;;;;;;5087591;28;34364;-77
2022/08/16 05:17:17;;;;;;;8.27;3.80;;;16.90;25.00;;;;;;5087180;28;35693;-77
2022/08/16 05:19:44;;;;;;;3.65;3.35;;;17.00;25.00;;;;;;5070891;27;34241;-77
2022/08/16 05:22:10;;;;;;;5.97;4.65;;;17.00;25.00;;;;;;5090888;27;34364;-77
2022/08/16 05:24:36;;;;;;;4.50;3.85;;;17.00;24.90;;;;;;5106712;27;34141;-77
2022/08/16 05:27:02;;;;;;;7.55;3.90;;;17.10;24.80;;;;;;5086675;28;36214;-77
2022/08/16 05:29:28;;;;;;;4.60;4.00;;;17.20;24.90;;;;;;5070379;28;34262;-77
2022/08/16 05:31:54;;;;;;;5.50;4.18;;;17.20;24.60;;;;;;5087070;28;35242;-77
2022/08/16 05:34:20;;;;;;;4.03;3.70;;;17.30;24.50;;;;;;5105328;28;34107;-77
2022/08/16 05:36:48;;;;;;;5.45;4.40;;;17.30;24.90;;;;;;5066424;28;36220;-77
2022/08/16 05:39:14;;;;;;;6.03;3.80;;;17.40;24.60;;;;;;5064540;27;34198;-77
2022/08/16 05:41:40;;;;;;;4.40;4.00;;;17.50;24.60;;;;;;5107232;27;34175;-77
2022/08/16 05:44:06;;;;;;;5.18;3.90;;;17.50;24.70;;;;;;5126043;27;34411;-77
2022/08/16 05:46:32;;;;;;;4.38;3.97;;;17.60;24.50;;;;;;5088083;28;35863;-77
2022/08/16 05:48:59;;;;;;;4.75;4.35;;;17.70;24.60;;;;;;5086322;28;34246;-77
2022/08/16 05:51:25;;;;;;;6.85;4.47;;;17.70;25.00;;;;;;5087122;28;34360;-77
2022/08/16 05:53:51;;;;;;;4.85;4.15;;;17.80;25.00;;;;;;5086966;28;34245;-77
2022/08/16 05:56:17;;;;;;;4.72;4.30;;;17.90;24.90;;;;;;5087606;28;35939;-77
2022/08/16 05:58:43;;;;;;;6.72;4.47;;;18.00;24.80;;;;;;5103539;27;34305;-77
2022/08/16 06:01:09;;;;;;;7.00;4.95;;;18.20;24.90;;;;;;5088794;28;34024;-77
2022/08/16 06:03:36;;;;;;;7.22;5.18;;;18.30;24.70;;;;;;5086428;28;34270;-77
2022/08/16 06:06:02;;;;;;;6.22;5.10;;;18.50;24.50;;;;;;5086067;28;36532;-77
2022/08/16 06:08:28;;;;;;;5.32;4.82;;;18.80;24.30;;;;;;5086121;28;34306;-77
2022/08/16 06:10:54;;;;;;;5.25;4.75;;;18.90;24.10;;;;;;5068597;28;34118;-77
2022/08/16 06:13:20;;;;;;;6.28;5.07;;;19.10;23.90;;;;;;5086651;28;34423;-77
2022/08/16 06:15:50;;;;;;;6.47;5.05;;;19.20;23.70;;;;;;5096073;27;35859;-77
2022/08/16 06:18:17;;;;;;;10.73;5.50;;;19.20;23.90;;;;;;5086314;28;34243;-77
2022/08/16 06:20:43;;;;;;;9.13;5.82;;;19.30;24.10;;;;;;5097943;27;34147;-77
2022/08/16 06:23:09;;;;;;;9.70;5.93;;;19.30;24.10;;;;;;5085600;28;34157;-77
2022/08/16 06:25:36;;;;;;;7.03;5.30;;;19.40;24.30;;;;;;5085926;28;35681;-77
2022/08/16 06:28:04;;;;;;;9.13;5.55;;;19.50;24.10;;;;;;5069047;28;34120;-77
2022/08/16 06:30:31;;;;;;;6.07;5.47;;;19.60;23.90;;;;;;5097839;28;34151;-77
2022/08/16 06:32:58;;;;;;;11.10;5.60;;;19.70;23.80;;;;;;5099554;28;34107;-77
2022/08/16 06:35:25;;;;;;;6.85;5.50;;;19.70;23.90;;;;;;5103635;28;34336;-78
2022/08/16 06:37:51;;;;;;;8.30;6.10;;;19.80;24.00;;;;;;5067954;27;34338;-78
2022/08/16 06:40:17;;;;;;;8.05;6.20;;;20.00;23.80;;;;;;5085610;28;34403;-77
2022/08/16 06:42:43;;;;;;;8.18;5.88;;;20.10;23.70;;;;;;5069547;28;34329;-78
2022/08/16 06:45:09;;;;;;;7.13;6.43;;;20.30;23.60;;;;;;5068381;28;36351;-78
2022/08/16 06:47:35;;;;;;;8.07;6.57;;;20.50;22.80;;;;;;5069849;28;34130;-78
2022/08/16 06:50:01;;;;;;;6.70;5.97;;;20.90;22.90;;;;;;5103085;27;34423;-78
2022/08/16 06:52:32;;;;;;;7.00;6.30;;;21.40;21.80;;;;;;5066486;28;34307;-77
2022/08/16 06:54:58;;;;;;;8.70;6.38;;;21.70;21.60;;;;;;5069556;28;36388;-77
2022/08/16 06:57:24;;;;;;;7.85;6.95;;;21.80;21.20;;;;;;5085926;28;34340;-77
2022/08/16 06:59:50;;;;;;;8.50;7.05;;;21.90;20.70;;;;;;5099469;28;34404;-77
2022/08/16 07:02:17;;;;;;;7.70;6.45;;;22.00;20.60;;;;;;5063673;28;34417;-77
2022/08/16 07:04:44;;;;;;;7.32;6.50;;;22.00;20.60;;;;;;5085651;28;34336;-77
2022/08/16 07:07:10;;;;;;;10.13;6.40;;;22.00;20.70;;;;;;5086414;28;34262;-77
2022/08/16 07:09:36;;;;;;;9.30;6.82;;;22.20;20.60;;;;;;5103702;28;34109;-77
2022/08/16 07:12:03;;;;;;;7.10;6.22;;;22.20;20.20;;;;;;5085122;28;34065;-77
2022/08/16 07:14:29;;;;;;;7.68;6.85;;;22.00;20.20;;;;;;5084996;28;35615;-78
2022/08/16 07:16:56;;;;;;;10.23;7.30;;;22.10;20.10;;;;;;5085373;28;34563;-77
2022/08/16 07:19:22;;;;;;;9.10;6.75;;;22.20;20.00;;;;;;5080911;28;34329;-77
2022/08/16 07:21:49;;;;;;;9.50;7.65;;;22.50;19.80;;;;;;5070234;27;34515;-77
2022/08/16 07:24:16;;;;;;;9.48;7.03;;;22.70;19.40;;;;;;5062070;28;35565;-77
2022/08/16 07:26:43;;;;;;;8.98;6.88;;;23.00;19.10;;;;;;5088859;28;34080;-76
2022/08/16 07:29:09;;;;;;;9.77;6.88;;;23.50;18.70;;;;;;5060951;28;34698;-77
2022/08/16 07:31:36;;;;;;;7.93;6.80;;;23.70;18.10;;;;;;5089462;28;34400;-77
2022/08/16 07:34:02;;;;;;;8.13;7.00;;;23.90;17.90;;;;;;5082625;27;35578;-77
2022/08/16 07:36:28;;;;;;;9.68;6.50;;;23.90;17.40;;;;;;5106703;28;34826;-77
2022/08/16 07:41:40;;;;;;;8.93;7.25;;;24.00;17.40;;;;;;5085038;27;34136;-77
2022/08/16 07:44:06;;;;;;;8.82;6.93;;;23.90;17.00;;;;;;5106631;28;34428;-77
2022/08/16 07:46:33;;;;;;;9.95;7.40;;;24.00;17.50;;;;;;5088914;28;34243;-78
2022/08/16 07:49:00;;;;;;;9.40;6.97;;;24.00;16.90;;;;;;5107698;28;34118;-77
2022/08/16 07:51:26;;;;;;;8.88;7.10;;;24.20;17.60;;;;;;5068489;28;34563;-76
2022/08/16 07:53:52;;;;;;;12.48;7.47;;;24.20;17.40;;;;;;5076948;28;34508;-77
2022/08/16 07:56:18;;;;;;;11.50;7.55;;;24.30;17.10;;;;;;5103254;27;34616;-77
2022/08/16 07:58:45;;;;;;;10.43;7.38;;;24.40;16.20;;;;;;5095577;28;34247;-77
2022/08/16 08:01:12;;;;;;;11.73;6.75;;;24.40;16.10;;;;;;5118607;27;34347;-77
2022/08/16 08:03:40;;;;;;;10.20;6.97;;;24.50;16.40;;;;;;5107130;28;34317;-77
2022/08/16 08:06:08;;;;;;;9.13;6.88;;;24.50;16.30;;;;;;5081094;28;34293;-76
2022/08/16 08:08:34;;;;;;;9.27;6.13;;;24.80;16.30;;;;;;5060116;28;34195;-77
2022/08/16 08:11:00;;;;;;;8.88;7.45;;;25.00;16.00;;;;;;5069426;28;34249;-76
2022/08/16 08:13:28;;;;;;;10.95;7.10;;;25.20;15.90;;;;;;5107237;28;34697;-76
2022/08/16 08:15:54;;;;;;;10.75;7.15;;;25.30;15.80;;;;;;5090085;28;34114;-76
2022/08/16 08:18:20;;;;;;;8.45;7.10;;;25.40;15.70;;;;;;5106475;28;34291;-76
2022/08/16 08:20:46;;;;;;;8.88;7.13;;;25.50;15.60;;;;;;5088961;28;34242;-77
2022/08/16 08:23:13;;;;;;;8.30;7.05;;;25.60;15.10;;;;;;5072834;28;36623;-77
2022/08/16 08:25:41;;;;;;;8.30;6.55;;;25.70;15.10;;;;;;5089412;28;34237;-76
2022/08/16 08:28:07;;;;;;;7.88;6.35;;;25.90;14.90;;;;;;5089456;28;34143;-77
2022/08/16 08:30:34;;;;;;;8.50;6.32;;;26.00;15.00;;;;;;5108360;27;34041;-77
2022/08/16 08:33:01;;;;;;;7.72;5.57;;;26.00;15.10;;;;;;5085316;28;35559;-76
2022/08/16 08:35:27;;;;;;;7.60;5.72;;;26.20;14.80;;;;;;5087746;28;33783;-77
2022/08/16 08:37:54;;;;;;;6.88;5.82;;;26.40;14.70;;;;;;5107236;28;34329;-76
2022/08/16 08:40:21;;;;;;;7.28;6.25;;;26.50;14.20;;;;;;5092431;28;34108;-77
2022/08/16 08:42:48;;;;;;;8.65;5.82;;;26.60;13.50;;;;;;5088153;28;36373;-77
2022/08/16 08:45:14;;;;;;;7.18;5.72;;;26.60;13.80;;;;;;5106990;27;34391;-78
2022/08/16 08:47:45;;;;;;;7.75;5.97;;;26.80;13.90;;;;;;5089840;28;34293;-77
2022/08/16 08:50:13;;;;;;;9.20;5.57;;;26.90;12.80;;;;;;5107482;27;34605;-78
2022/08/16 08:52:39;;;;;;;6.47;5.53;;;26.90;13.30;;;;;;5092214;28;36094;-76
2022/08/16 08:55:08;;;;;;;7.93;6.15;;;26.80;13.30;;;;;;5087906;28;34255;-77
2022/08/16 08:57:34;;;;;;;7.22;5.45;;;26.60;13.40;;;;;;5071258;28;34192;-76
2022/08/16 09:00:00;;;;;;;5.88;5.07;;;26.60;13.40;;;;;;5087675;28;34167;-77
2022/08/16 09:02:26;;;;;;;6.05;5.45;;;26.60;13.30;;;;;;5069672;28;35732;-76
2022/08/16 09:04:52;;;;;;;6.40;4.57;;;26.60;13.30;;;;;;5095763;28;34095;-77
2022/08/16 09:07:20;;;;;;;5.82;5.00;;;26.70;13.40;;;;;;5104528;27;34481;-77
2022/08/16 09:09:46;;;;;;;6.25;4.97;;;26.70;13.40;;;;;;5068152;28;34434;-78
2022/08/16 09:12:12;;;;;;;6.10;4.35;;;26.70;13.30;;;;;;5092065;27;35728;-77
2022/08/16 09:14:38;;;;;;;7.45;5.13;;;26.70;13.10;;;;;;5088255;28;34319;-77
2022/08/16 09:17:06;;;;;;;5.70;4.75;;;26.60;12.60;;;;;;5060142;28;34213;-76
2022/08/16 09:19:35;;;;;;;5.20;4.20;;;26.80;12.30;;;;;;5106700;28;34429;-77
2022/08/16 09:22:03;;;;;;;7.30;4.70;;;26.80;12.10;;;;;;5087556;28;35958;-78
2022/08/16 09:24:31;;;;;;;4.38;3.97;;;27.00;12.30;;;;;;5075389;28;34146;-78
2022/08/16 09:26:57;;;;;;;6.43;3.88;;;27.00;11.80;;;;;;5089361;28;34332;-77
2022/08/16 09:29:22;;;;;;;4.57;4.18;;;27.00;12.00;;;;;;5110428;27;34143;-77
2022/08/16 09:31:48;;;;;;;4.32;3.92;;;27.00;11.90;;;;;;5083750;28;35495;-77
2022/08/16 09:34:15;;;;;;;4.40;4.00;;;27.10;11.50;;;;;;5086805;28;34252;-76
2022/08/16 09:36:41;;;;;;;5.10;4.18;;;27.30;11.20;;;;;;5090409;28;34261;-77
2022/08/16 09:39:07;;;;;;;4.07;3.55;;;27.40;10.70;;;;;;5091540;28;34099;-77
2022/08/16 09:41:33;;;;;;;4.32;3.70;;;27.50;10.70;;;;;;5072036;28;35774;-77
2022/08/16 09:43:59;;;;;;;4.45;3.83;;;27.60;10.60;;;;;;5087709;28;34401;-77
2022/08/16 09:46:26;;;;;;;4.05;3.47;;;27.70;10.40;;;;;;5086880;28;34293;-77
2022/08/16 09:48:53;;;;;;;4.78;3.17;;;27.90;10.20;;;;;;5088769;28;34325;-77
2022/08/16 09:51:22;;;;;;;4.22;3.58;;;28.00;10.10;;;;;;5110795;27;35450;-76
2022/08/16 09:53:49;;;;;;;5.05;3.40;;;28.10;9.80;;;;;;5090080;28;34120;-77
2022/08/16 09:56:26;;;;;;;3.60;3.30;;;28.20;9.60;;;;;;5088451;28;34166;-78
2022/08/16 09:58:52;;;;;;;3.22;2.92;;;28.40;7.80;;;;;;5078737;27;34143;-79
2022/08/16 10:01:19;;;;;;;4.78;3.20;;;28.50;9.10;;;;;;5105828;28;34235;-78
2022/08/16 10:03:45;;;;;;;3.17;2.80;;;28.90;9.10;;;;;;5077892;28;34178;-77
2022/08/16 10:06:29;;;;;;;3.47;3.15;;;29.10;9.30;;;;;;5070438;28;34288;-77
2022/08/16 10:08:56;;;;;;;3.47;2.92;;;29.30;8.80;;;;;;5088013;27;34107;-78
2022/08/16 10:14:03;;;;;;;3.03;2.70;;;29.50;7.80;;;;;;5106967;28;34516;-78
2022/08/16 10:16:30;;;;;;;3.95;2.65;;;29.60;7.30;;;;;;5088244;28;34013;-77
2022/08/16 10:18:56;;;;;;;4.68;3.05;;;29.60;6.60;;;;;;5072291;28;34124;-77
2022/08/16 10:21:22;;;;;;;2.75;2.55;;;29.50;7.10;;;;;;5106361;28;36424;-80
2022/08/16 10:23:50;;;;;;;3.10;2.88;;;29.60;6.90;;;;;;5088232;28;34131;-77
2022/08/16 10:26:17;;;;;;;2.67;2.47;;;29.70;7.10;;;;;;5070921;28;34140;-79
2022/08/16 10:28:44;;;;;;;2.50;2.30;;;29.90;6.90;;;;;;5088135;28;34178;-78
2022/08/16 10:31:10;;;;;;;3.15;2.63;;;30.20;6.30;;;;;;5088241;28;35642;-77
2022/08/16 10:33:37;;;;;;;2.17;2.03;;;30.40;5.70;;;;;;5089354;28;34275;-79
2022/08/16 10:36:06;;;;;;;4.63;2.38;;;30.50;5.60;;;;;;5094011;28;34172;-78
2022/08/16 10:38:34;;;;;;;2.58;2.20;;;30.80;4.80;;;;;;5090469;28;34329;-77
2022/08/16 10:41:01;;;;;;;3.22;2.38;;;31.00;5.10;;;;;;5088558;28;35674;-77
2022/08/16 10:43:28;;;;;;;4.07;2.47;;;31.10;5.10;;;;;;5078888;28;34203;-77
2022/08/16 10:45:54;;;;;;;3.92;2.25;;;31.20;4.80;;;;;;5108388;27;34249;-77
2022/08/16 10:48:20;;;;;;;2.90;2.70;;;31.30;4.60;;;;;;5105327;28;33750;-77
2022/08/16 10:50:46;;;;;;;3.15;2.20;;;31.40;4.20;;;;;;5086124;28;36730;-77
2022/08/16 10:53:12;;;;;;;2.03;1.85;;;31.40;4.30;;;;;;5099314;28;34245;-77
2022/08/16 10:55:40;;;;;;;2.45;2.20;;;31.50;4.00;;;;;;5105822;28;34097;-75
2022/08/16 10:58:09;;;;;;;2.90;2.60;;;31.40;2.10;;;;;;5105873;28;34093;-74
2022/08/16 11:00:39;;;;;;;2.30;2.08;;;31.20;2.70;;;;;;5067932;28;35745;-75
2022/08/16 11:03:06;;;;;;;4.25;2.40;;;31.30;2.80;;;;;;5085144;28;34022;-76
2022/08/16 11:05:42;;;;;;;3.40;2.35;;;31.50;2.80;;;;;;5085909;28;34142;-77
2022/08/16 11:08:11;;;;;;;2.33;2.10;;;31.60;1.00;;;;;;5103705;28;34377;-76
2022/08/16 11:10:41;;;;;;;3.65;2.00;;;31.90;1.30;;;;;;5064110;28;36658;-76
2022/08/16 11:13:10;;;;;;;2.95;1.75;;;31.90;1.00;;;;;;5100407;28;34376;-76
2022/08/16 11:15:37;;;;;;;3.15;2.40;;;31.70;1.80;;;;;;5084185;28;34170;-76
2022/08/16 11:18:05;;;;;;;3.47;2.20;;;31.80;1.70;;;;;;5085400;28;34162;-76
2022/08/16 11:20:31;;;;;;;2.42;2.08;;;31.60;1.30;;;;;;5064224;28;36665;-77
2022/08/16 11:22:58;;;;;;;3.08;2.10;;;31.60;1.60;;;;;;5069919;28;34142;-76
2022/08/16 11:25:27;;;;;;;5.78;2.45;;;31.60;1.30;;;;;;5087082;28;34097;-75
2022/08/16 11:27:55;;;;;;;3.97;2.30;;;31.80;1.00;;;;;;5069467;28;34131;-76
2022/08/16 11:30:23;;;;;;;2.33;1.70;;;31.90;1.00;;;;;;5087068;28;35743;-76
2022/08/16 11:32:50;;;;;;;2.65;2.05;;;31.90;1.00;;;;;;5065748;28;34245;-76
2022/08/16 11:35:19;;;;;;;3.50;2.95;;;32.00;1.00;;;;;;5086123;28;34230;-77
2022/08/16 11:38:03;;;;;;;2.92;2.30;;;32.00;1.00;;;;;;5087649;28;34500;-76
2022/08/16 11:40:34;;;;;;;2.85;2.20;;;31.80;1.00;;;;;;5086365;28;35924;-76
2022/08/16 11:43:00;;;;;;;2.42;2.20;;;31.70;1.00;;;;;;5066333;28;34274;-76
2022/08/16 11:45:26;;;;;;;3.58;2.45;;;31.50;1.00;;;;;;5071040;28;34429;-75
2022/08/16 11:47:54;;;;;;;2.67;2.08;;;31.20;1.00;;;;;;5088447;28;34416;-75
2022/08/16 11:50:20;;;;;;;4.47;2.38;;;30.90;1.00;;;;;;5104041;28;34563;-75
2022/08/16 11:52:46;;;;;;;3.80;2.13;;;30.60;1.40;;;;;;5085946;28;34232;-75
2022/08/16 11:55:12;;;;;;;3.22;2.00;;;30.50;1.60;;;;;;5085725;28;34257;-76
2022/08/16 11:57:39;;;;;;;3.05;2.00;;;30.40;1.90;;;;;;5085555;28;34306;-76
2022/08/16 12:00:10;;;;;;;2.65;2.45;;;30.40;2.20;;;;;;5084848;28;36605;-76
2022/08/16 12:02:36;;;;;;;3.08;2.47;;;30.60;1.70;;;;;;5069940;28;34206;-75
2022/08/16 12:05:05;;;;;;;3.10;2.47;;;30.60;1.00;;;;;;5085691;28;34147;-76
2022/08/16 12:07:30;;;;;;;3.25;2.20;;;30.80;1.00;;;;;;5085966;28;34076;-75
2022/08/16 12:09:56;;;;;;;3.50;2.50;;;30.90;1.10;;;;;;5053959;28;35508;-75
2022/08/16 12:12:23;;;;;;;3.35;3.00;;;31.20;1.00;;;;;;5089694;28;34350;-76
2022/08/16 12:14:48;;;;;;;2.50;2.13;;;31.20;1.00;;;;;;5088608;28;34197;-77
2022/08/16 12:17:14;;;;;;;2.92;2.72;;;31.40;1.00;;;;;;5106512;28;34187;-76
2022/08/16 12:19:41;;;;;;;2.65;2.45;;;31.50;1.00;;;;;;5105984;27;36591;-76
2022/08/16 12:22:07;;;;;;;3.63;2.33;;;31.60;1.00;;;;;;5088570;28;34105;-76
2022/08/16 12:24:33;;;;;;;2.45;1.98;;;31.80;1.00;;;;;;5088821;28;34064;-76
2022/08/16 12:27:00;;;;;;;4.00;2.20;;;32.00;1.00;;;;;;5106665;28;34472;-78
2022/08/16 12:29:44;;;;;;;3.25;2.40;;;32.20;1.00;;;;;;5104603;28;36086;-76
2022/08/16 12:32:10;;;;;;;3.60;2.53;;;32.40;1.00;;;;;;5085395;28;34298;-76
2022/08/16 12:34:37;;;;;;;6.70;2.28;;;32.50;1.00;;;;;;5069161;28;34210;-78
2022/08/16 12:37:04;;;;;;;4.28;2.33;;;32.60;1.00;;;;;;5068187;28;34263;-78
2022/08/16 12:39:30;;;;;;;2.75;2.50;;;32.80;1.00;;;;;;5088344;28;36890;-75
2022/08/16 12:41:56;;;;;;;3.50;2.38;;;32.90;1.00;;;;;;5088434;28;34193;-76
2022/08/16 12:44:22;;;;;;;4.38;2.28;;;32.90;1.00;;;;;;5088829;28;34231;-77
2022/08/16 12:48:56;;;;;;;2.50;2.30;;;32.90;1.00;;;;;;5071719;28;34192;-75
2022/08/16 12:49:34;;;;;;;4.13;2.20;;;32.80;1.00;;;;;;5091478;28;34171;-76
2022/08/16 12:52:00;;;;;;;3.03;2.15;;;32.70;1.00;;;;;;5106311;28;34124;-76
2022/08/16 12:54:26;;;;;;;5.53;2.40;;;32.70;1.00;;;;;;5072736;28;34723;-77